createdAt,value
2018-01-16T00:02:23.507Z,99.17
2018-01-16T00:04:51.236Z,99.31
2018-01-16T00:07:18.919Z,99.55
2018-01-16T00:09:46.667Z,99.55
2018-01-16T00:12:14.347Z,99.67
2018-01-16T00:14:42.081Z,99.98
2018-01-16T00:17:09.770Z,100.00
2018-01-16T00:19:37.544Z,100.00
2018-01-16T00:22:05.250Z,100.00
2018-01-16T00:24:32.952Z,100.00
2018-01-16T00:27:00.635Z,100.00
2018-01-16T00:29:28.367Z,100.00
2018-01-16T00:31:56.055Z,100.00
2018-01-16T00:34:23.789Z,100.00
2018-01-16T00:36:51.483Z,100.00
2018-01-16T00:39:19.160Z,100.00
2018-01-16T00:41:46.840Z,100.00
2018-01-16T00:44:14.588Z,100.00
2018-01-16T00:46:42.315Z,100.00
2018-01-16T00:49:10.050Z,100.00
2018-01-16T00:51:37.725Z,100.00
2018-01-16T00:54:05.456Z,100.00
2018-01-16T00:56:33.087Z,100.00
2018-01-16T00:59:00.806Z,100.00
2018-01-16T01:01:28.421Z,100.00
2018-01-16T01:03:56.100Z,100.00
2018-01-16T01:06:23.731Z,100.00
2018-01-16T01:08:51.472Z,100.00
2018-01-16T01:11:19.105Z,100.00
2018-01-16T01:13:46.831Z,100.00
2018-01-16T01:16:14.518Z,100.00
2018-01-16T01:18:42.200Z,100.00
2018-01-16T01:21:09.871Z,100.00
2018-01-16T01:23:37.551Z,100.00
2018-01-16T01:26:05.219Z,100.00
2018-01-16T01:28:32.921Z,100.00
2018-01-16T01:31:00.599Z,100.00
2018-01-16T01:33:28.291Z,100.00
2018-01-16T01:35:55.966Z,100.00
2018-01-16T01:38:23.663Z,100.00
2018-01-16T01:40:51.395Z,100.00
2018-01-16T01:43:19.088Z,100.00
2018-01-16T01:45:46.837Z,100.00
2018-01-16T01:48:14.454Z,100.00
2018-01-16T01:50:42.190Z,100.00
2018-01-16T01:53:09.873Z,100.00
2018-01-16T01:55:37.548Z,100.00
2018-01-16T01:58:05.251Z,100.00
2018-01-16T02:00:32.988Z,100.00
2018-01-16T02:03:00.625Z,100.00
2018-01-16T02:05:28.368Z,100.00
2018-01-16T02:07:55.996Z,100.00
2018-01-16T02:10:23.727Z,100.00
2018-01-16T02:12:51.420Z,100.00
2018-01-16T02:15:19.146Z,100.00
2018-01-16T02:17:46.838Z,100.00
2018-01-16T02:20:14.505Z,100.00
2018-01-16T02:22:42.184Z,100.00
2018-01-16T02:25:09.908Z,100.00
2018-01-16T02:27:37.589Z,100.00
2018-01-16T02:30:05.316Z,100.00
2018-01-16T02:32:33.011Z,100.00
2018-01-16T02:35:00.750Z,100.00
2018-01-16T02:37:28.432Z,100.00
2018-01-16T02:39:56.100Z,100.00
2018-01-16T02:42:23.778Z,100.00
2018-01-16T02:44:51.479Z,100.00
2018-01-16T02:47:19.195Z,100.00
2018-01-16T02:49:46.942Z,100.00
2018-01-16T02:52:14.647Z,100.00
2018-01-16T02:54:42.407Z,100.00
2018-01-16T02:57:10.086Z,100.00
2018-01-16T02:59:37.766Z,100.00
2018-01-16T03:02:06.304Z,100.00
2018-01-16T03:04:33.989Z,100.00
2018-01-16T03:07:01.719Z,100.00
2018-01-16T03:09:29.347Z,100.00
2018-01-16T03:11:57.096Z,100.00
2018-01-16T03:14:24.796Z,100.00
2018-01-16T03:16:52.581Z,100.00
2018-01-16T03:19:20.295Z,100.00
2018-01-16T03:21:48.020Z,100.00
2018-01-16T03:24:15.660Z,100.00
2018-01-16T03:26:43.398Z,100.00
2018-01-16T03:29:11.078Z,100.00
2018-01-16T03:31:38.816Z,100.00
2018-01-16T03:34:06.467Z,100.00
2018-01-16T03:36:34.179Z,100.00
2018-01-16T03:39:01.855Z,100.00
2018-01-16T03:41:29.581Z,100.00
2018-01-16T03:43:57.256Z,100.00
2018-01-16T03:46:24.983Z,100.00
2018-01-16T03:48:52.673Z,100.00
2018-01-16T03:51:20.354Z,100.00
2018-01-16T03:53:48.047Z,100.00
2018-01-16T03:56:15.791Z,100.00
2018-01-16T03:58:43.476Z,100.00
2018-01-16T04:01:11.199Z,100.00
2018-01-16T04:03:38.886Z,100.00
2018-01-16T04:06:06.542Z,100.00
2018-01-16T04:08:34.231Z,100.00
2018-01-16T04:11:01.911Z,100.00
2018-01-16T04:13:29.584Z,100.00
2018-01-16T04:15:57.319Z,100.00
2018-01-16T04:18:25.007Z,100.00
2018-01-16T04:20:52.673Z,100.00
2018-01-16T04:23:20.286Z,100.00
2018-01-16T04:25:48.011Z,100.00
2018-01-16T04:28:15.702Z,100.00
2018-01-16T04:30:43.453Z,100.00
2018-01-16T04:33:11.139Z,100.00
2018-01-16T04:35:38.887Z,100.00
2018-01-16T04:38:06.511Z,100.00
2018-01-16T04:40:34.198Z,100.00
2018-01-16T04:43:01.943Z,100.00
2018-01-16T04:45:29.614Z,100.00
2018-01-16T04:47:57.336Z,100.00
2018-01-16T04:50:25.016Z,100.00
2018-01-16T04:52:52.743Z,100.00
2018-01-16T04:55:20.363Z,100.00
2018-01-16T04:57:48.096Z,100.00
2018-01-16T05:00:15.795Z,100.00
2018-01-16T05:02:43.463Z,100.00
2018-01-16T05:05:11.151Z,100.00
2018-01-16T05:07:38.884Z,100.00
2018-01-16T05:10:06.585Z,100.00
2018-01-16T05:12:34.312Z,100.00
2018-01-16T05:15:01.989Z,100.00
2018-01-16T05:17:29.730Z,100.00
2018-01-16T05:19:57.450Z,100.00
2018-01-16T05:22:25.172Z,100.00
2018-01-16T05:24:52.857Z,100.00
2018-01-16T05:27:20.576Z,100.00
2018-01-16T05:29:48.266Z,100.00
2018-01-16T05:32:15.997Z,100.00
2018-01-16T05:34:43.677Z,100.00
2018-01-16T05:37:11.417Z,100.00
2018-01-16T05:39:39.032Z,100.00
2018-01-16T05:42:06.771Z,100.00
2018-01-16T05:44:34.469Z,100.00
2018-01-16T05:47:02.229Z,100.00
2018-01-16T05:49:29.970Z,100.00
2018-01-16T05:51:57.747Z,100.00
2018-01-16T05:54:25.447Z,100.00
2018-01-16T05:56:53.224Z,100.00
2018-01-16T05:59:20.854Z,100.00
2018-01-16T06:01:48.551Z,100.00
2018-01-16T06:04:16.177Z,100.00
2018-01-16T06:06:43.852Z,100.00
2018-01-16T06:09:11.487Z,100.00
2018-01-16T06:11:39.164Z,100.00
2018-01-16T06:14:06.812Z,100.00
2018-01-16T06:16:34.499Z,100.00
2018-01-16T06:19:02.121Z,100.00
2018-01-16T06:21:29.767Z,100.00
2018-01-16T06:23:57.445Z,100.00
2018-01-16T06:26:25.076Z,100.00
2018-01-16T06:28:52.760Z,100.00
2018-01-16T06:31:20.380Z,100.00
2018-01-16T06:33:48.057Z,100.00
2018-01-16T06:36:15.681Z,100.00
2018-01-16T06:38:43.342Z,100.00
2018-01-16T06:41:10.959Z,100.00
2018-01-16T06:43:38.624Z,100.00
2018-01-16T06:46:06.249Z,100.00
2018-01-16T06:48:33.927Z,100.00
2018-01-16T06:51:01.600Z,100.00
2018-01-16T06:53:29.270Z,100.00
2018-01-16T06:55:56.903Z,100.00
2018-01-16T06:58:24.597Z,100.00
2018-01-16T07:00:52.274Z,100.00
2018-01-16T07:03:19.950Z,100.00
2018-01-16T07:05:47.644Z,100.00
2018-01-16T07:08:15.319Z,100.00
2018-01-16T07:13:15.268Z,100.00
2018-01-16T07:15:42.956Z,100.00
2018-01-16T07:18:10.708Z,100.00
2018-01-16T07:20:38.454Z,100.00
2018-01-16T07:23:06.208Z,100.00
2018-01-16T07:25:33.844Z,100.00
2018-01-16T07:28:01.588Z,100.00
2018-01-16T07:30:29.267Z,100.00
2018-01-16T07:32:57.014Z,100.00
2018-01-16T07:35:24.698Z,100.00
2018-01-16T07:37:52.381Z,100.00
2018-01-16T07:40:20.043Z,100.00
2018-01-16T07:42:47.736Z,100.00
2018-01-16T07:45:15.358Z,100.00
2018-01-16T07:47:46.593Z,100.00
2018-01-16T07:50:14.244Z,100.00
2018-01-16T07:52:41.932Z,100.00
2018-01-16T07:55:09.561Z,100.00
2018-01-16T07:57:37.303Z,100.00
2018-01-16T08:00:04.988Z,100.00
2018-01-16T08:02:32.622Z,100.00
2018-01-16T08:05:00.364Z,100.00
2018-01-16T08:07:28.074Z,100.00
2018-01-16T08:09:55.887Z,100.00
2018-01-16T08:12:23.524Z,100.00
2018-01-16T08:14:51.270Z,100.00
2018-01-16T08:17:18.995Z,100.00
2018-01-16T08:19:46.786Z,100.00
2018-01-16T08:22:14.461Z,100.00
2018-01-16T08:24:42.197Z,100.00
2018-01-16T08:27:09.900Z,100.00
2018-01-16T08:29:37.639Z,100.00
2018-01-16T08:32:05.326Z,100.00
2018-01-16T08:34:33.054Z,100.00
2018-01-16T08:37:00.729Z,100.00
2018-01-16T08:39:28.456Z,100.00
2018-01-16T08:41:56.123Z,100.00
2018-01-16T08:44:23.882Z,100.00
2018-01-16T08:46:51.572Z,100.00
2018-01-16T08:49:19.298Z,100.00
2018-01-16T08:51:47.028Z,100.00
2018-01-16T08:54:14.796Z,100.00
2018-01-16T08:56:42.882Z,100.00
2018-01-16T08:59:10.606Z,100.00
2018-01-16T09:01:38.318Z,100.00
2018-01-16T09:04:06.086Z,100.00
2018-01-16T09:06:33.783Z,100.00
2018-01-16T09:09:01.529Z,100.00
2018-01-16T09:11:29.223Z,100.00
2018-01-16T09:13:56.997Z,100.00
2018-01-16T09:16:24.709Z,100.00
2018-01-16T09:18:52.466Z,100.00
2018-01-16T09:21:20.208Z,100.00
2018-01-16T09:23:47.948Z,100.00
2018-01-16T09:26:15.633Z,100.00
2018-01-16T09:28:43.386Z,100.00
2018-01-16T09:31:11.065Z,100.00
2018-01-16T09:33:38.854Z,100.00
2018-01-16T09:36:06.493Z,100.00
2018-01-16T09:38:34.237Z,100.00
2018-01-16T09:41:01.923Z,100.00
2018-01-16T09:43:29.598Z,100.00
2018-01-16T09:45:57.332Z,100.00
2018-01-16T09:48:24.999Z,100.00
2018-01-16T09:50:52.763Z,100.00
2018-01-16T09:53:20.464Z,100.00
2018-01-16T09:55:48.205Z,100.00
2018-01-16T09:58:15.879Z,100.00
2018-01-16T10:00:43.624Z,100.00
2018-01-16T10:03:11.322Z,100.00
2018-01-16T10:05:39.015Z,100.00
2018-01-16T10:08:06.691Z,100.00
2018-01-16T10:10:34.430Z,100.00
2018-01-16T10:13:02.137Z,100.00
2018-01-16T10:15:29.861Z,100.00
2018-01-16T10:17:57.562Z,100.00
2018-01-16T10:20:25.363Z,100.00
2018-01-16T10:22:53.050Z,100.00
2018-01-16T10:25:20.787Z,99.91
2018-01-16T10:27:48.482Z,99.65
2018-01-16T10:30:16.214Z,99.49
2018-01-16T10:32:43.911Z,99.41
2018-01-16T10:35:11.638Z,99.46
2018-01-16T10:37:39.349Z,99.46
2018-01-16T10:40:07.125Z,99.37
2018-01-16T10:42:34.824Z,99.23
2018-01-16T10:45:02.561Z,99.38
2018-01-16T10:47:30.256Z,99.40
2018-01-16T10:49:58.007Z,99.06
2018-01-16T10:52:25.692Z,98.52
2018-01-16T10:54:53.409Z,98.14
2018-01-16T10:57:21.103Z,97.75
2018-01-16T10:59:48.862Z,97.48
2018-01-16T11:02:16.551Z,97.34
2018-01-16T11:04:44.294Z,96.98
2018-01-16T11:07:11.993Z,96.89
2018-01-16T11:09:39.728Z,96.82
2018-01-16T11:12:07.410Z,96.95
2018-01-16T11:14:35.136Z,96.87
2018-01-16T11:17:02.824Z,97.20
2018-01-16T11:19:30.597Z,97.31
2018-01-16T11:21:58.279Z,96.89
2018-01-16T11:24:25.995Z,96.84
2018-01-16T11:26:53.790Z,96.81
2018-01-16T11:29:21.496Z,96.21
2018-01-16T11:31:49.223Z,96.39
2018-01-16T11:34:17.011Z,96.49
2018-01-16T11:36:44.777Z,96.70
2018-01-16T11:39:12.474Z,96.97
2018-01-16T11:41:40.218Z,97.29
2018-01-16T11:44:07.905Z,97.50
2018-01-16T11:46:35.651Z,97.82
2018-01-16T11:49:03.348Z,97.99
2018-01-16T11:51:31.111Z,98.07
2018-01-16T11:53:58.796Z,98.07
2018-01-16T11:56:26.529Z,98.02
2018-01-16T11:58:54.223Z,97.99
2018-01-16T12:01:21.987Z,97.88
2018-01-16T12:03:49.766Z,97.66
2018-01-16T12:06:17.518Z,97.39
2018-01-16T12:08:45.271Z,97.31
2018-01-16T12:11:12.979Z,97.34
2018-01-16T12:13:40.723Z,97.41
2018-01-16T12:16:08.421Z,97.61
2018-01-16T12:18:36.109Z,97.80
2018-01-16T12:21:03.890Z,97.92
2018-01-16T12:23:31.607Z,98.05
2018-01-16T12:25:59.339Z,98.13
2018-01-16T12:28:27.026Z,98.12
2018-01-16T12:30:54.695Z,98.17
2018-01-16T12:33:22.381Z,97.89
2018-01-16T12:35:50.141Z,97.74
2018-01-16T12:38:17.943Z,97.52
2018-01-16T12:40:45.597Z,97.22
2018-01-16T12:43:13.310Z,97.06
2018-01-16T12:45:40.992Z,97.18
2018-01-16T12:48:08.662Z,97.13
2018-01-16T12:50:36.351Z,96.94
2018-01-16T12:53:03.971Z,96.52
2018-01-16T12:55:31.688Z,96.51
2018-01-16T12:57:59.394Z,96.25
2018-01-16T13:00:27.136Z,96.16
2018-01-16T13:02:54.828Z,95.42
2018-01-16T13:05:22.552Z,95.67
2018-01-16T13:07:50.284Z,95.82
2018-01-16T13:10:18.073Z,95.88
2018-01-16T13:12:45.760Z,96.05
2018-01-16T13:15:13.586Z,95.99
2018-01-16T13:17:41.270Z,95.98
2018-01-16T13:20:09.007Z,95.87
2018-01-16T13:22:36.624Z,95.87
2018-01-16T13:25:04.282Z,95.87
2018-01-16T13:27:31.963Z,95.91
2018-01-16T13:29:59.708Z,96.08
2018-01-16T13:32:27.402Z,96.12
2018-01-16T13:34:55.140Z,96.26
2018-01-16T13:37:22.836Z,96.27
2018-01-16T13:39:50.518Z,96.55
2018-01-16T13:42:18.160Z,96.59
2018-01-16T13:44:45.887Z,96.52
2018-01-16T13:47:13.643Z,96.48
2018-01-16T13:49:41.448Z,96.21
2018-01-16T13:52:09.187Z,96.17
2018-01-16T13:54:36.890Z,96.02
2018-01-16T13:57:04.686Z,96.15
2018-01-16T13:59:32.385Z,96.26
2018-01-16T14:02:00.152Z,96.39
2018-01-16T14:04:27.866Z,96.54
2018-01-16T14:06:55.642Z,96.54
2018-01-16T14:09:23.318Z,96.49
2018-01-16T14:11:51.093Z,96.54
2018-01-16T14:14:18.711Z,96.54
2018-01-16T14:16:46.400Z,96.59
2018-01-16T14:19:14.019Z,96.61
2018-01-16T14:21:41.713Z,96.67
2018-01-16T14:24:09.347Z,96.62
2018-01-16T14:26:37.015Z,96.67
2018-01-16T14:29:04.622Z,96.71
2018-01-16T14:31:32.313Z,96.78
2018-01-16T14:33:59.980Z,96.91
2018-01-16T14:36:27.641Z,97.11
2018-01-16T14:38:55.332Z,97.25
2018-01-16T14:41:22.999Z,97.40
2018-01-16T14:43:50.804Z,97.52
2018-01-16T14:46:18.480Z,97.71
2018-01-16T14:48:46.092Z,97.87
2018-01-16T14:51:13.774Z,97.99
2018-01-16T14:53:41.398Z,98.11
2018-01-16T14:56:09.083Z,98.31
2018-01-16T14:58:36.714Z,98.60
2018-01-16T15:01:04.393Z,98.84
2018-01-16T15:03:32.030Z,99.09
2018-01-16T15:05:59.717Z,99.16
2018-01-16T15:08:27.369Z,99.34
2018-01-16T15:10:55.068Z,99.64
2018-01-16T15:13:22.712Z,99.68
2018-01-16T15:15:50.471Z,99.72
2018-01-16T15:18:18.097Z,99.84
2018-01-16T15:20:45.821Z,99.96
2018-01-16T15:23:13.443Z,100.00
2018-01-16T15:25:41.058Z,100.00
2018-01-16T15:28:08.747Z,100.00
2018-01-16T15:30:36.388Z,100.00
2018-01-16T15:33:04.068Z,100.00
2018-01-16T15:35:31.697Z,100.00
2018-01-16T15:37:59.463Z,100.00
2018-01-16T15:40:27.079Z,100.00
2018-01-16T15:42:54.782Z,100.00
2018-01-16T15:45:22.478Z,100.00
2018-01-16T15:47:50.212Z,100.00
2018-01-16T15:50:17.907Z,100.00
2018-01-16T15:52:45.575Z,100.00
2018-01-16T15:55:13.273Z,100.00
2018-01-16T15:57:40.967Z,100.00
2018-01-16T16:00:08.590Z,100.00
2018-01-16T16:02:36.310Z,100.00
2018-01-16T16:05:04.037Z,100.00
2018-01-16T16:07:31.708Z,100.00
2018-01-16T16:09:59.348Z,100.00
2018-01-16T16:12:27.008Z,100.00
2018-01-16T16:14:54.631Z,100.00
2018-01-16T16:17:22.333Z,100.00
2018-01-16T16:19:50.001Z,100.00
2018-01-16T16:22:17.746Z,100.00
2018-01-16T16:24:45.403Z,100.00
2018-01-16T16:27:13.099Z,100.00
2018-01-16T16:29:40.817Z,100.00
2018-01-16T16:32:08.558Z,100.00
2018-01-16T16:34:36.227Z,100.00
2018-01-16T16:37:03.900Z,100.00
2018-01-16T16:39:31.587Z,100.00
2018-01-16T16:41:59.264Z,100.00
2018-01-16T16:44:26.894Z,100.00
2018-01-16T16:46:54.577Z,100.00
2018-01-16T16:49:22.264Z,100.00
2018-01-16T16:51:49.938Z,100.00
2018-01-16T16:54:17.642Z,100.00
2018-01-16T16:56:45.436Z,100.00
2018-01-16T16:59:13.137Z,100.00
2018-01-16T17:01:40.923Z,100.00
2018-01-16T17:04:08.602Z,100.00
2018-01-16T17:06:36.332Z,100.00
2018-01-16T17:09:04.091Z,100.00
2018-01-16T17:11:31.778Z,100.00
2018-01-16T17:13:59.509Z,100.00
2018-01-16T17:16:27.140Z,100.00
2018-01-16T17:18:54.805Z,100.00
2018-01-16T17:21:22.506Z,100.00
2018-01-16T17:23:50.170Z,100.00
2018-01-16T17:26:17.868Z,100.00
2018-01-16T17:28:45.530Z,100.00
2018-01-16T17:31:13.172Z,100.00
2018-01-16T17:33:40.853Z,100.00
2018-01-16T17:36:08.526Z,100.00
2018-01-16T17:38:36.224Z,100.00
2018-01-16T17:41:03.843Z,100.00
2018-01-16T17:43:31.499Z,100.00
2018-01-16T17:45:59.133Z,100.00
2018-01-16T17:48:26.813Z,100.00
2018-01-16T17:50:54.480Z,100.00
2018-01-16T17:53:22.158Z,100.00
2018-01-16T17:55:49.785Z,100.00
2018-01-16T17:58:17.549Z,100.00
2018-01-16T18:00:45.156Z,100.00
2018-01-16T18:03:12.907Z,100.00
2018-01-16T18:05:40.599Z,100.00
2018-01-16T18:08:08.926Z,100.00
2018-01-16T18:10:36.599Z,100.00
2018-01-16T18:13:04.359Z,100.00
2018-01-16T18:15:31.990Z,100.00
2018-01-16T18:17:59.657Z,100.00
2018-01-16T18:20:27.306Z,100.00
2018-01-16T18:22:55.014Z,100.00
2018-01-16T18:25:22.694Z,100.00
2018-01-16T18:27:50.424Z,100.00
2018-01-16T18:30:18.045Z,100.00
2018-01-16T18:32:45.735Z,100.00
2018-01-16T18:35:13.356Z,100.00
2018-01-16T18:37:41.128Z,100.00
2018-01-16T18:40:08.831Z,100.00
2018-01-16T18:42:36.468Z,100.00
2018-01-16T18:45:04.238Z,100.00
2018-01-16T18:47:31.914Z,100.00
2018-01-16T18:49:59.743Z,100.00
2018-01-16T18:52:27.439Z,100.00
2018-01-16T18:54:55.333Z,100.00
2018-01-16T18:57:22.951Z,100.00
2018-01-16T18:59:50.667Z,100.00
2018-01-16T19:02:18.308Z,100.00
2018-01-16T19:04:45.977Z,100.00
2018-01-16T19:07:13.595Z,100.00
2018-01-16T19:09:41.262Z,100.00
2018-01-16T19:12:08.949Z,100.00
2018-01-16T19:14:36.630Z,100.00
2018-01-16T19:17:04.279Z,100.00
2018-01-16T19:19:31.948Z,100.00
2018-01-16T19:21:59.585Z,100.00
2018-01-16T19:24:27.271Z,100.00
2018-01-16T19:26:54.894Z,100.00
2018-01-16T19:29:22.644Z,100.00
2018-01-16T19:31:50.283Z,100.00
2018-01-16T19:34:17.978Z,100.00
2018-01-16T19:36:45.624Z,100.00
2018-01-16T19:39:13.293Z,100.00
2018-01-16T19:41:40.928Z,100.00
2018-01-16T19:44:08.626Z,100.00
2018-01-16T19:46:36.247Z,100.00
2018-01-16T19:49:03.961Z,100.00
2018-01-16T19:51:31.610Z,100.00
2018-01-16T19:53:59.292Z,100.00
2018-01-16T19:56:26.921Z,100.00
2018-01-16T19:58:54.666Z,100.00
2018-01-16T20:01:22.323Z,99.99
2018-01-16T20:03:50.048Z,99.88
2018-01-16T20:06:17.724Z,99.76
2018-01-16T20:08:45.497Z,99.80
2018-01-16T20:11:13.210Z,99.95
2018-01-16T20:13:40.920Z,99.96
2018-01-16T20:16:08.642Z,99.93
2018-01-16T20:18:36.411Z,99.89
2018-01-16T20:21:04.076Z,99.88
2018-01-16T20:23:31.826Z,99.84
2018-01-16T20:25:59.508Z,99.86
2018-01-16T20:28:27.218Z,99.85
2018-01-16T20:30:55.864Z,99.85
2018-01-16T20:33:23.608Z,99.82
2018-01-16T20:35:51.273Z,99.82
2018-01-16T20:38:19.030Z,99.86
2018-01-16T20:40:46.686Z,99.89
2018-01-16T20:43:14.432Z,99.90
2018-01-16T20:45:42.105Z,99.97
2018-01-16T20:48:09.802Z,100.00
2018-01-16T20:50:37.535Z,99.98
2018-01-16T20:53:05.236Z,99.91
2018-01-16T20:55:33.029Z,99.86
2018-01-16T20:58:00.744Z,99.87
2018-01-16T21:00:28.480Z,99.95
2018-01-16T21:02:56.219Z,100.00
2018-01-16T21:05:23.953Z,100.00
2018-01-16T21:07:51.680Z,100.00
2018-01-16T21:10:19.404Z,100.00
2018-01-16T21:12:47.146Z,100.00
2018-01-16T21:15:14.855Z,100.00
2018-01-16T21:17:42.548Z,100.00
2018-01-16T21:20:10.274Z,100.00
2018-01-16T21:22:37.901Z,100.00
2018-01-16T21:25:05.699Z,100.00
2018-01-16T21:27:33.448Z,100.00
2018-01-16T21:30:01.234Z,100.00
2018-01-16T21:32:28.921Z,100.00
2018-01-16T21:34:56.712Z,100.00
2018-01-16T21:37:24.328Z,100.00
2018-01-16T21:39:52.107Z,100.00
2018-01-16T21:42:19.783Z,100.00
2018-01-16T21:44:47.508Z,100.00
2018-01-16T21:47:15.192Z,100.00
2018-01-16T21:49:42.914Z,100.00
2018-01-16T21:52:10.558Z,100.00
2018-01-16T21:54:38.230Z,100.00
2018-01-16T21:57:05.979Z,100.00
2018-01-16T21:59:33.669Z,100.00
2018-01-16T22:02:01.417Z,100.00
2018-01-16T22:04:29.125Z,100.00
2018-01-16T22:06:56.978Z,100.00
2018-01-16T22:09:24.660Z,100.00
2018-01-16T22:11:52.352Z,100.00
2018-01-16T22:14:20.019Z,100.00
2018-01-16T22:16:47.710Z,100.00
2018-01-16T22:19:15.350Z,100.00
2018-01-16T22:21:43.015Z,100.00
2018-01-16T22:24:10.716Z,99.87
2018-01-16T22:26:38.393Z,99.89
2018-01-16T22:29:06.082Z,99.85
2018-01-16T22:31:33.846Z,99.81
2018-01-16T22:34:01.566Z,99.85
2018-01-16T22:36:29.337Z,99.83
2018-01-16T22:38:57.044Z,99.79
2018-01-16T22:41:24.757Z,99.81
2018-01-16T22:43:52.377Z,99.88
2018-01-16T22:46:20.098Z,99.84
2018-01-16T22:48:47.722Z,99.82
2018-01-16T22:51:15.402Z,99.82
2018-01-16T22:53:43.097Z,99.80
2018-01-16T22:56:10.765Z,99.78
2018-01-16T22:58:38.392Z,99.80
2018-01-16T23:01:06.067Z,99.87
2018-01-16T23:03:33.692Z,99.97
2018-01-16T23:06:01.488Z,100.00
2018-01-16T23:08:29.119Z,100.00
2018-01-16T23:10:56.795Z,100.00
2018-01-16T23:13:24.488Z,100.00
2018-01-16T23:15:52.221Z,100.00
2018-01-16T23:18:19.850Z,99.94
2018-01-16T23:20:47.504Z,99.86
2018-01-16T23:23:15.128Z,99.76
2018-01-16T23:25:42.791Z,99.77
2018-01-16T23:28:10.417Z,99.83
2018-01-16T23:30:38.092Z,99.79
2018-01-16T23:33:05.720Z,99.71
2018-01-16T23:35:33.455Z,99.62
2018-01-16T23:38:01.087Z,99.50
2018-01-16T23:40:28.752Z,99.45
2018-01-16T23:42:56.377Z,99.40
2018-01-16T23:45:24.068Z,99.44
2018-01-16T23:47:51.736Z,99.47
2018-01-16T23:50:19.424Z,99.46
2018-01-16T23:52:47.081Z,99.44
2018-01-16T23:55:14.703Z,99.40
2018-01-16T23:57:42.455Z,99.38
